Terminal Aerodrome Forecast
Issued by NWS

Home | Current Version | Previous Version | Text Only | Print | Product List | Glossary On
Versions: 1 2 3 4 5 6 7 8 9 10 11 12 13 14 15 16 17 18 19 20 21 22 23 24 25 26 27 28 29 30 31 32 33 34 35 36 37 38 39 40 41 42 43 44 45 46 47 48 49 50
012
FTUS42 KMFL 240535
TAFTMB
TAF
KTMB 240535Z 2406/2506 00000KT P6SM VCSH FEW035 BKN200
     FM241400 VRB03KT P6SM VCSH FEW025 SCT060
     FM241800 11006KT P6SM VCTS SCT025CB BKN060
     FM250100 VRB03KT P6SM FEW025 BKN060 OVC250
     FM250300 00000KT P6SM OVC250=

USA.gov is the U.S. government's official web portal to all federal, state and local government web resources and services.